Time;durP1;ratioP1;P1;durP2;ratioP2;P2;SDS_P1;SDS_P2;PMS_P1;PMS_P2;Temp;Humidity;BMP_temperature;BMP_pressure;BME280_temperature;BME280_humidity;BME280_pressure;Samples;Min_cycle;Max_cycle;Signal;HPM_P1;HPM_P2
2021/06/18 00:00:28;;;;;;;12.30;9.90;;;21.30;99.90;;;;;;5116014;28;20514;-67
2021/06/18 00:02:54;;;;;;;12.93;9.43;;;21.20;99.90;;;;;;5114949;28;20483;-65
2021/06/18 00:05:20;;;;;;;12.13;9.70;;;21.30;99.90;;;;;;5116079;28;20507;-67
2021/06/18 00:07:46;;;;;;;9.87;8.87;;;21.30;99.90;;;;;;5114873;28;20459;-66
2021/06/18 00:10:14;;;;;;;11.40;9.30;;;21.30;99.90;;;;;;5114660;28;20546;-66
2021/06/18 00:12:40;;;;;;;18.40;10.10;;;21.20;99.90;;;;;;5115802;28;20456;-65
2021/06/18 00:15:08;;;;;;;12.87;10.60;;;21.20;99.90;;;;;;5115768;28;20404;-68
2021/06/18 00:17:34;;;;;;;10.70;9.70;;;21.10;99.90;;;;;;5116033;28;20553;-65
2021/06/18 00:20:00;;;;;;;10.67;9.70;;;21.00;99.90;;;;;;5115661;28;20451;-65
2021/06/18 00:24:06;;;;;;;12.03;10.07;;;20.70;99.90;;;;;;5173944;27;20544;-65
2021/06/18 00:26:32;;;;;;;10.53;9.30;;;20.60;99.90;;;;;;5137679;27;20531;-68
2021/06/18 00:28:57;;;;;;;10.80;9.80;;;20.60;99.90;;;;;;5132489;27;20423;-65
2021/06/18 00:31:23;;;;;;;13.90;10.30;;;20.50;99.90;;;;;;5131994;27;20194;-67
2021/06/18 00:33:48;;;;;;;10.60;9.50;;;20.60;99.90;;;;;;5132463;27;20179;-65
2021/06/18 00:36:14;;;;;;;11.80;9.60;;;20.90;99.90;;;;;;5131952;27;20282;-65
2021/06/18 00:38:40;;;;;;;10.80;9.60;;;20.90;99.90;;;;;;5130611;28;20277;-68
2021/06/18 00:41:05;;;;;;;12.43;10.20;;;20.90;99.90;;;;;;5131825;27;20739;-65
2021/06/18 00:43:31;;;;;;;12.73;9.80;;;21.00;99.90;;;;;;5132181;27;20561;-67
2021/06/18 00:45:57;;;;;;;11.07;9.57;;;21.10;99.90;;;;;;5130415;27;20202;-68
2021/06/18 00:48:24;;;;;;;11.00;9.90;;;21.00;99.90;;;;;;5130623;28;20454;-67
2021/06/18 00:50:50;;;;;;;10.27;9.30;;;21.00;99.90;;;;;;5131564;27;20247;-67
2021/06/18 00:53:15;;;;;;;12.63;9.90;;;21.10;99.90;;;;;;5130503;28;20431;-67
2021/06/18 00:55:41;;;;;;;11.60;10.40;;;21.00;99.90;;;;;;5131496;27;20683;-66
2021/06/18 00:58:08;;;;;;;10.43;8.93;;;21.00;99.90;;;;;;5130409;28;20175;-67
2021/06/18 01:00:34;;;;;;;12.00;10.30;;;20.80;99.90;;;;;;5131389;27;20423;-67
2021/06/18 01:03:00;;;;;;;10.90;9.87;;;20.70;99.90;;;;;;5131250;27;20474;-68
2021/06/18 01:05:26;;;;;;;12.17;10.63;;;20.70;99.90;;;;;;5131344;27;20299;-66
2021/06/18 01:08:00;;;;;;;13.27;11.07;;;20.80;99.90;;;;;;5130040;28;20427;-65
2021/06/18 01:10:35;;;;;;;12.30;10.73;;;20.70;99.90;;;;;;5129983;27;20435;-65
2021/06/18 01:13:17;;;;;;;16.17;11.10;;;20.80;99.90;;;;;;5131501;27;20498;-68
2021/06/18 01:16:11;;;;;;;12.00;10.33;;;20.80;99.90;;;;;;5131156;27;20427;-66
2021/06/18 01:19:14;;;;;;;12.30;10.70;;;20.70;99.90;;;;;;5129981;28;20446;-65
2021/06/18 01:21:46;;;;;;;10.60;9.53;;;20.80;99.90;;;;;;5130662;27;20427;-66
2021/06/18 01:24:46;;;;;;;16.07;11.60;;;20.80;99.90;;;;;;5131023;27;20402;-65
2021/06/18 01:27:40;;;;;;;12.00;10.47;;;20.70;99.90;;;;;;5131173;27;20415;-66
2021/06/18 01:30:08;;;;;;;10.83;9.77;;;20.60;99.90;;;;;;5130894;27;20406;-68
2021/06/18 01:32:57;;;;;;;12.97;10.33;;;20.60;99.90;;;;;;5131058;27;20424;-67
2021/06/18 01:35:27;;;;;;;10.60;9.57;;;20.50;99.90;;;;;;5109483;28;20443;-65
2021/06/18 01:37:56;;;;;;;15.10;10.60;;;20.30;99.90;;;;;;5117362;28;20506;-65
2021/06/18 01:40:26;;;;;;;13.93;11.13;;;20.30;99.90;;;;;;5117100;28;20423;-67
2021/06/18 01:42:52;;;;;;;13.63;10.80;;;20.40;99.90;;;;;;5117253;28;20569;-65
2021/06/18 01:45:20;;;;;;;12.87;10.30;;;20.50;99.90;;;;;;5116908;28;20992;-66
2021/06/18 01:47:47;;;;;;;10.93;9.70;;;20.40;99.90;;;;;;5115613;28;20496;-67
2021/06/18 01:50:16;;;;;;;13.00;10.30;;;20.40;99.90;;;;;;5115550;28;20427;-65
2021/06/18 01:52:46;;;;;;;17.07;11.33;;;20.40;99.90;;;;;;5116909;28;20753;-68
2021/06/18 01:55:13;;;;;;;17.03;11.53;;;20.40;99.90;;;;;;5116763;28;20427;-65
2021/06/18 01:57:40;;;;;;;12.63;10.87;;;20.30;99.90;;;;;;5116815;28;20420;-65
2021/06/18 02:00:07;;;;;;;11.80;10.17;;;20.30;99.90;;;;;;5116521;28;20447;-65
2021/06/18 02:02:35;;;;;;;14.90;11.43;;;20.10;99.90;;;;;;5116643;28;20474;-65
2021/06/18 02:05:04;;;;;;;13.97;10.60;;;20.20;99.90;;;;;;5115187;28;20408;-65
2021/06/18 02:07:30;;;;;;;15.10;12.07;;;20.10;99.90;;;;;;5115270;28;20431;-67
2021/06/18 02:09:58;;;;;;;13.10;11.53;;;20.10;99.90;;;;;;5116411;28;20403;-65
2021/06/18 02:12:24;;;;;;;13.17;10.60;;;20.20;99.90;;;;;;5116582;28;20762;-65
2021/06/18 02:14:51;;;;;;;14.03;10.87;;;20.20;99.90;;;;;;5116370;28;20410;-68
2021/06/18 02:17:18;;;;;;;15.13;12.20;;;20.20;99.90;;;;;;5116559;28;20408;-67
2021/06/18 02:19:47;;;;;;;12.80;10.93;;;20.10;99.90;;;;;;5116320;28;20920;-65
2021/06/18 02:22:14;;;;;;;13.53;11.23;;;20.00;99.90;;;;;;5115864;28;20514;-65
2021/06/18 02:24:41;;;;;;;13.13;11.47;;;19.90;99.90;;;;;;5116322;28;20753;-65
2021/06/18 02:27:11;;;;;;;13.10;11.57;;;19.90;99.90;;;;;;5116082;28;20440;-67
2021/06/18 02:29:36;;;;;;;14.00;11.70;;;19.70;99.90;;;;;;5116188;28;20399;-69
2021/06/18 02:32:05;;;;;;;16.70;12.23;;;19.70;99.90;;;;;;5115963;28;20451;-65
2021/06/18 02:34:34;;;;;;;14.10;11.50;;;19.60;99.90;;;;;;5115986;28;20644;-68
2021/06/18 02:37:01;;;;;;;11.93;10.67;;;19.50;99.90;;;;;;5115854;28;20428;-68
2021/06/18 02:39:27;;;;;;;17.13;10.63;;;19.60;99.90;;;;;;5115898;28;20501;-66
2021/06/18 02:41:53;;;;;;;12.40;10.70;;;19.70;99.90;;;;;;5115703;28;20474;-67
2021/06/18 02:44:18;;;;;;;18.97;11.77;;;19.60;99.90;;;;;;5115838;28;20202;-67
2021/06/18 02:46:52;;;;;;;11.40;10.30;;;19.50;99.90;;;;;;5113289;28;20194;-66
2021/06/18 02:49:24;;;;;;;13.87;12.57;;;19.50;99.90;;;;;;5115786;28;20163;-65
2021/06/18 02:51:58;;;;;;;19.17;11.70;;;19.40;99.90;;;;;;5115628;28;20419;-67
2021/06/18 02:54:31;;;;;;;14.27;10.90;;;19.60;99.90;;;;;;5115619;28;20484;-66
2021/06/18 02:57:09;;;;;;;13.90;11.07;;;19.60;99.90;;;;;;5115438;28;20442;-69
2021/06/18 02:59:42;;;;;;;15.37;11.20;;;19.60;99.90;;;;;;5115544;27;20473;-68
2021/06/18 03:02:14;;;;;;;13.10;11.00;;;19.60;99.90;;;;;;5115406;28;20462;-67
2021/06/18 03:04:43;;;;;;;14.60;11.57;;;19.60;99.90;;;;;;5115503;27;20381;-67
2021/06/18 03:07:14;;;;;;;13.53;12.20;;;19.40;99.90;;;;;;5115258;28;20466;-67
2021/06/18 03:09:46;;;;;;;16.40;11.67;;;19.50;99.90;;;;;;5115298;28;20386;-69
2021/06/18 03:12:12;;;;;;;12.40;10.83;;;19.40;99.90;;;;;;5115439;28;20518;-67
2021/06/18 03:14:42;;;;;;;15.20;11.37;;;19.40;99.90;;;;;;5115192;28;20958;-66
2021/06/18 03:17:10;;;;;;;15.93;11.70;;;19.30;99.90;;;;;;5113743;28;20477;-65
2021/06/18 03:19:41;;;;;;;14.50;10.83;;;19.30;99.90;;;;;;5113979;28;20972;-68
2021/06/18 03:22:10;;;;;;;13.80;11.43;;;19.40;99.90;;;;;;5114654;28;20487;-68
2021/06/18 03:24:37;;;;;;;14.17;12.03;;;19.50;99.90;;;;;;5115123;28;20737;-65
2021/06/18 03:27:03;;;;;;;15.17;11.60;;;19.50;99.90;;;;;;5113589;28;20452;-66
2021/06/18 03:29:31;;;;;;;17.93;11.37;;;19.50;99.90;;;;;;5115011;28;20907;-66
2021/06/18 03:32:00;;;;;;;12.07;10.77;;;19.50;99.90;;;;;;5114822;28;20450;-66
2021/06/18 03:34:27;;;;;;;14.03;12.63;;;19.50;99.90;;;;;;5113575;28;20505;-65
2021/06/18 03:36:54;;;;;;;15.33;11.50;;;19.40;99.90;;;;;;5113302;28;20437;-68
2021/06/18 03:39:20;;;;;;;14.07;11.20;;;19.30;99.90;;;;;;5113960;28;20406;-66
2021/06/18 03:41:46;;;;;;;14.30;12.53;;;19.30;99.90;;;;;;5112602;28;20430;-65
2021/06/18 03:44:14;;;;;;;15.90;12.70;;;19.40;99.90;;;;;;5113423;28;20411;-68
2021/06/18 03:46:41;;;;;;;15.73;11.67;;;19.30;99.90;;;;;;5113860;28;20454;-65
2021/06/18 03:49:08;;;;;;;17.80;11.70;;;19.30;99.90;;;;;;5111081;28;20404;-66
2021/06/18 03:51:35;;;;;;;17.90;13.17;;;19.40;99.90;;;;;;5113262;28;20474;-68
2021/06/18 03:54:01;;;;;;;16.07;12.10;;;19.40;99.90;;;;;;5113327;28;20958;-65
2021/06/18 03:56:29;;;;;;;15.23;11.90;;;19.30;99.90;;;;;;5112850;28;20435;-67
2021/06/18 03:58:56;;;;;;;12.87;11.50;;;19.20;99.90;;;;;;5113234;28;20799;-65
2021/06/18 04:01:24;;;;;;;12.97;11.67;;;19.30;99.90;;;;;;5114433;28;20427;-68
2021/06/18 04:03:51;;;;;;;13.03;11.50;;;19.10;99.90;;;;;;5113269;28;20906;-65
2021/06/18 04:06:18;;;;;;;17.87;12.10;;;19.10;99.90;;;;;;5114284;28;20452;-67
2021/06/18 04:08:44;;;;;;;16.07;12.10;;;19.00;99.90;;;;;;5114778;28;20442;-65
2021/06/18 04:11:10;;;;;;;14.40;12.13;;;19.10;99.90;;;;;;5114228;28;20429;-65
2021/06/18 04:13:37;;;;;;;12.80;11.47;;;19.10;99.90;;;;;;5114623;28;20423;-65
2021/06/18 04:16:05;;;;;;;14.07;12.10;;;19.20;99.90;;;;;;5114152;28;20427;-67
2021/06/18 04:18:33;;;;;;;14.40;11.90;;;19.30;99.90;;;;;;5113046;28;20418;-67
2021/06/18 04:21:03;;;;;;;17.50;13.00;;;19.20;99.90;;;;;;5114165;28;20427;-65
2021/06/18 04:23:29;;;;;;;19.90;11.93;;;19.30;99.90;;;;;;5113724;28;20483;-65
2021/06/18 04:25:58;;;;;;;14.23;12.70;;;19.40;99.90;;;;;;5113153;28;20927;-69
2021/06/18 04:28:25;;;;;;;20.30;12.20;;;19.40;99.90;;;;;;5114133;28;20185;-65
2021/06/18 04:30:51;;;;;;;17.43;12.33;;;19.30;99.90;;;;;;5114034;28;20567;-67
2021/06/18 04:33:16;;;;;;;17.67;12.93;;;19.40;99.90;;;;;;5112806;28;20526;-67
2021/06/18 04:35:42;;;;;;;17.73;12.57;;;19.40;99.90;;;;;;5114093;28;20201;-67
2021/06/18 04:38:07;;;;;;;18.00;12.57;;;19.60;99.90;;;;;;5112869;28;20186;-66
2021/06/18 04:40:33;;;;;;;14.77;13.27;;;19.70;99.90;;;;;;5113947;28;20195;-65
2021/06/18 04:42:59;;;;;;;19.30;13.00;;;19.70;99.90;;;;;;5112762;28;20217;-65
2021/06/18 04:45:26;;;;;;;14.87;12.90;;;19.70;99.90;;;;;;5112634;28;20530;-67
2021/06/18 04:47:52;;;;;;;17.60;11.83;;;19.90;99.90;;;;;;5112730;28;20425;-67
2021/06/18 04:50:17;;;;;;;18.10;12.20;;;19.90;99.90;;;;;;5113892;28;20423;-68
2021/06/18 04:52:44;;;;;;;14.07;11.37;;;20.00;99.90;;;;;;5113803;28;20415;-65
2021/06/18 04:55:15;;;;;;;12.40;11.20;;;20.00;99.90;;;;;;5113224;28;20186;-65
2021/06/18 04:57:41;;;;;;;18.43;12.60;;;20.10;99.90;;;;;;5110911;28;20442;-69
2021/06/18 05:00:07;;;;;;;13.90;12.20;;;20.10;99.90;;;;;;5113277;28;20901;-66
2021/06/18 05:02:32;;;;;;;20.00;11.80;;;20.10;99.90;;;;;;5112706;28;20886;-67
2021/06/18 05:04:58;;;;;;;13.43;12.17;;;20.10;99.90;;;;;;5113750;28;20404;-68
2021/06/18 05:07:24;;;;;;;14.43;12.87;;;20.20;99.90;;;;;;5113403;28;20618;-68
2021/06/18 05:09:49;;;;;;;15.90;12.43;;;20.20;99.90;;;;;;5115472;28;20625;-65
2021/06/18 05:12:15;;;;;;;14.70;12.27;;;20.20;99.90;;;;;;5117633;28;20423;-66
2021/06/18 05:14:41;;;;;;;12.83;10.50;;;20.20;99.90;;;;;;5117652;28;20167;-66
2021/06/18 05:17:06;;;;;;;13.40;12.10;;;20.20;99.90;;;;;;5116109;28;20694;-65
2021/06/18 05:19:32;;;;;;;12.63;11.33;;;20.20;99.90;;;;;;5117520;28;20205;-65
2021/06/18 05:21:57;;;;;;;16.83;12.57;;;20.40;99.90;;;;;;5116034;28;20207;-65
2021/06/18 05:24:23;;;;;;;14.57;11.77;;;20.40;99.90;;;;;;5116349;28;20171;-67
2021/06/18 05:26:48;;;;;;;13.10;11.20;;;20.50;99.90;;;;;;5116772;28;20191;-67
2021/06/18 05:29:14;;;;;;;13.43;12.03;;;20.60;99.90;;;;;;5117329;28;20172;-68
2021/06/18 05:31:39;;;;;;;14.87;11.63;;;20.60;99.90;;;;;;5116543;28;20543;-66
2021/06/18 05:34:05;;;;;;;12.37;11.07;;;20.70;99.90;;;;;;5116983;28;20183;-68
2021/06/18 05:36:31;;;;;;;13.17;11.77;;;20.80;99.90;;;;;;5113750;28;20196;-65
2021/06/18 05:38:56;;;;;;;13.53;11.87;;;20.90;99.90;;;;;;5115732;27;20623;-65
2021/06/18 05:41:22;;;;;;;17.70;10.60;;;21.00;99.90;;;;;;5116615;28;20211;-65
2021/06/18 05:43:47;;;;;;;16.17;9.90;;;21.10;99.90;;;;;;5116287;28;20215;-69
2021/06/18 05:46:13;;;;;;;12.03;10.83;;;21.10;99.90;;;;;;5116371;28;20198;-69
2021/06/18 05:48:38;;;;;;;11.57;10.57;;;21.20;99.90;;;;;;5115751;28;20696;-66
2021/06/18 05:51:04;;;;;;;10.97;10.03;;;21.20;99.90;;;;;;5116422;28;20203;-65
2021/06/18 05:53:30;;;;;;;14.23;10.23;;;21.40;99.90;;;;;;5116841;28;20547;-67
2021/06/18 05:55:57;;;;;;;13.53;10.00;;;21.50;99.90;;;;;;5116501;28;20245;-67
2021/06/18 05:58:23;;;;;;;12.67;10.90;;;21.60;99.90;;;;;;5113683;27;20180;-66
2021/06/18 06:00:48;;;;;;;17.07;10.90;;;21.80;99.90;;;;;;5115324;28;20470;-66
2021/06/18 06:03:14;;;;;;;16.37;10.10;;;21.90;99.90;;;;;;5116738;28;20219;-65
2021/06/18 06:05:40;;;;;;;12.70;9.60;;;22.10;99.90;;;;;;5116405;28;20201;-66
2021/06/18 06:08:12;;;;;;;10.97;9.03;;;22.20;99.90;;;;;;5114094;27;20278;-65
2021/06/18 06:10:38;;;;;;;10.03;9.00;;;23.10;99.90;;;;;;5114412;28;20673;-66
2021/06/18 06:13:05;;;;;;;10.03;9.13;;;23.70;99.90;;;;;;5115838;27;20427;-67
2021/06/18 06:15:31;;;;;;;10.20;9.20;;;23.90;99.90;;;;;;5115853;28;20420;-65
2021/06/18 06:17:57;;;;;;;9.23;8.33;;;24.10;99.90;;;;;;5114664;28;20484;-69
2021/06/18 06:20:22;;;;;;;9.40;8.03;;;24.20;99.90;;;;;;5115635;28;20447;-66
2021/06/18 06:22:48;;;;;;;11.13;8.10;;;24.30;99.90;;;;;;5112433;27;20246;-65
2021/06/18 06:25:13;;;;;;;8.00;7.20;;;24.30;99.90;;;;;;5114379;27;20680;-65
2021/06/18 06:27:40;;;;;;;9.60;7.40;;;24.30;99.90;;;;;;5114465;27;20199;-66
2021/06/18 06:30:07;;;;;;;9.00;7.40;;;24.60;99.90;;;;;;5114292;28;20199;-66
2021/06/18 06:32:33;;;;;;;8.50;7.23;;;24.80;99.90;;;;;;5117395;27;20428;-67
2021/06/18 06:35:00;;;;;;;10.27;6.70;;;24.90;99.90;;;;;;5114388;28;20430;-65
2021/06/18 06:37:25;;;;;;;10.97;6.30;;;25.00;99.90;;;;;;5115846;28;20425;-68
2021/06/18 06:39:51;;;;;;;7.53;6.73;;;25.10;99.90;;;;;;5114880;28;20604;-67
2021/06/18 06:42:17;;;;;;;7.03;6.37;;;25.30;99.90;;;;;;5115703;28;20221;-67
2021/06/18 06:44:42;;;;;;;6.93;6.23;;;25.30;99.90;;;;;;5115270;28;20715;-69
2021/06/18 06:47:08;;;;;;;7.10;5.43;;;25.40;99.90;;;;;;5113629;28;20209;-66
2021/06/18 06:49:34;;;;;;;6.10;4.73;;;25.40;99.90;;;;;;5110709;28;20181;-68
2021/06/18 06:52:00;;;;;;;6.43;4.70;;;25.50;99.90;;;;;;5109570;27;20505;-66
2021/06/18 06:54:25;;;;;;;10.07;5.00;;;25.60;99.90;;;;;;5112163;28;20180;-68
2021/06/18 06:56:56;;;;;;;5.87;5.37;;;25.40;99.90;;;;;;5110530;28;20229;-66
2021/06/18 06:59:22;;;;;;;5.53;5.03;;;25.30;99.90;;;;;;5114802;28;20657;-68
2021/06/18 07:01:48;;;;;;;4.70;4.00;;;25.80;99.90;;;;;;5111638;27;20532;-66
2021/06/18 07:04:13;;;;;;;4.70;4.30;;;26.00;99.90;;;;;;5108957;28;20459;-68
2021/06/18 07:06:39;;;;;;;5.23;4.40;;;26.10;99.90;;;;;;5112598;28;20606;-69
2021/06/18 07:09:08;;;;;;;9.47;4.20;;;26.20;99.90;;;;;;5111670;28;20435;-75
2021/06/18 07:11:34;;;;;;;5.13;4.70;;;26.10;99.90;;;;;;5099592;28;20196;-69
2021/06/18 07:14:00;;;;;;;4.60;4.20;;;26.50;99.90;;;;;;5111357;28;20427;-66
2021/06/18 07:16:26;;;;;;;5.20;4.70;;;26.70;99.90;;;;;;5108688;28;20273;-70
2021/06/18 07:18:52;;;;;;;5.10;4.40;;;26.60;99.90;;;;;;5109698;28;20203;-66
2021/06/18 07:21:18;;;;;;;5.07;4.67;;;27.00;99.90;;;;;;5107362;28;20532;-66
2021/06/18 07:23:44;;;;;;;4.80;4.40;;;27.00;99.90;;;;;;5106828;28;20487;-70
2021/06/18 07:26:09;;;;;;;5.00;4.60;;;27.20;99.90;;;;;;5108460;28;20559;-70
2021/06/18 07:28:35;;;;;;;5.87;5.37;;;27.40;99.90;;;;;;5110185;28;20537;-65
2021/06/18 07:31:01;;;;;;;11.37;5.27;;;27.40;99.90;;;;;;5108075;27;20324;-69
2021/06/18 07:33:27;;;;;;;5.10;4.70;;;27.70;99.90;;;;;;5111003;28;20201;-69
2021/06/18 07:35:52;;;;;;;4.97;4.57;;;27.80;99.90;;;;;;5109487;28;20195;-70
2021/06/18 07:38:18;;;;;;;4.90;4.50;;;27.80;99.90;;;;;;5107766;28;20785;-66
2021/06/18 07:40:44;;;;;;;7.20;5.10;;;28.00;99.90;;;;;;5105695;28;20203;-70
2021/06/18 07:43:09;;;;;;;4.47;4.07;;;28.10;99.90;;;;;;5110203;28;20394;-69
2021/06/18 07:45:35;;;;;;;5.03;4.57;;;28.10;99.90;;;;;;5110185;27;20268;-66
2021/06/18 07:48:02;;;;;;;7.97;5.60;;;27.90;99.90;;;;;;5114152;27;20183;-70
2021/06/18 07:50:28;;;;;;;5.27;4.47;;;28.00;99.90;;;;;;5110854;28;20460;-69
2021/06/18 07:52:53;;;;;;;6.37;4.80;;;28.10;99.90;;;;;;5113450;28;20443;-68
2021/06/18 07:55:21;;;;;;;6.27;4.73;;;28.10;99.90;;;;;;5111612;28;20321;-67
2021/06/18 07:57:47;;;;;;;5.50;5.00;;;28.10;99.90;;;;;;5112568;28;20180;-68
2021/06/18 08:00:13;;;;;;;4.53;4.10;;;28.00;99.90;;;;;;5111444;27;20803;-67
2021/06/18 08:02:39;;;;;;;4.63;4.20;;;28.20;99.90;;;;;;5108799;27;20207;-65
2021/06/18 08:05:06;;;;;;;11.23;4.53;;;28.10;99.90;;;;;;5108326;28;20424;-65
2021/06/18 08:07:32;;;;;;;4.93;4.40;;;27.80;99.90;;;;;;5113078;27;20934;-65
2021/06/18 08:09:57;;;;;;;4.73;4.03;;;27.70;99.90;;;;;;5105966;27;20514;-69
2021/06/18 08:12:23;;;;;;;5.47;4.90;;;27.80;99.90;;;;;;5109869;28;20182;-69
2021/06/18 08:14:49;;;;;;;4.67;4.20;;;27.90;99.90;;;;;;5099229;28;20541;-66
2021/06/18 08:17:15;;;;;;;4.30;3.97;;;27.80;99.90;;;;;;5113208;27;20430;-66
2021/06/18 08:19:41;;;;;;;4.70;4.30;;;28.10;99.90;;;;;;5096361;28;20258;-68
2021/06/18 08:22:07;;;;;;;5.97;3.97;;;28.20;99.90;;;;;;5103071;28;20232;-66
2021/06/18 08:24:34;;;;;;;3.80;3.33;;;28.50;99.90;;;;;;5104541;28;20426;-66
2021/06/18 08:27:00;;;;;;;5.43;4.00;;;28.60;99.90;;;;;;5106419;28;20290;-70
2021/06/18 08:29:25;;;;;;;4.70;3.70;;;28.60;99.90;;;;;;5105070;28;21037;-66
2021/06/18 08:31:51;;;;;;;3.67;3.33;;;28.70;99.90;;;;;;5104577;28;20195;-69
2021/06/18 08:34:17;;;;;;;4.07;3.77;;;28.90;99.90;;;;;;5109990;28;20225;-68
2021/06/18 08:36:43;;;;;;;6.63;4.10;;;29.10;99.90;;;;;;5108582;28;20191;-69
2021/06/18 08:39:09;;;;;;;4.03;3.73;;;29.20;99.90;;;;;;5113421;28;20176;-69
2021/06/18 08:41:35;;;;;;;5.70;4.20;;;29.30;99.90;;;;;;5111289;28;20453;-68
2021/06/18 08:44:01;;;;;;;7.20;4.20;;;29.40;99.90;;;;;;5114321;28;20561;-69
2021/06/18 08:46:27;;;;;;;4.33;3.93;;;29.20;99.90;;;;;;5115449;28;20456;-65
2021/06/18 08:48:52;;;;;;;4.10;3.80;;;29.50;99.90;;;;;;5115826;28;20443;-68
2021/06/18 08:51:19;;;;;;;5.77;4.33;;;29.70;99.90;;;;;;5114663;28;20291;-65
2021/06/18 08:53:45;;;;;;;3.83;3.53;;;29.60;99.90;;;;;;5117774;27;20203;-69
2021/06/18 08:56:11;;;;;;;3.60;3.40;;;29.80;99.90;;;;;;5116063;28;20824;-69
2021/06/18 08:58:37;;;;;;;4.17;3.77;;;29.90;99.90;;;;;;5115819;28;20270;-69
2021/06/18 09:01:04;;;;;;;3.97;3.67;;;30.00;99.90;;;;;;5116210;28;20196;-64
2021/06/18 09:03:36;;;;;;;3.70;3.40;;;29.90;99.90;;;;;;5106888;28;20204;-65
2021/06/18 09:06:23;;;;;;;4.73;3.97;;;30.10;99.60;;;;;;5114538;28;20434;-65
2021/06/18 09:09:08;;;;;;;4.47;4.07;;;30.10;99.00;;;;;;5105321;28;20438;-65
2021/06/18 09:11:38;;;;;;;4.07;3.70;;;30.20;99.00;;;;;;5116362;28;20418;-68
2021/06/18 09:14:14;;;;;;;4.03;3.63;;;30.30;98.50;;;;;;5114428;28;20496;-68
2021/06/18 09:16:40;;;;;;;6.13;3.80;;;30.20;97.80;;;;;;5114195;28;20464;-69
2021/06/18 09:19:05;;;;;;;3.73;3.43;;;29.50;98.30;;;;;;5117155;28;20424;-68
2021/06/18 09:21:31;;;;;;;4.73;3.53;;;29.50;98.40;;;;;;5115564;28;20281;-69
2021/06/18 09:23:57;;;;;;;4.40;4.00;;;29.50;99.90;;;;;;5114858;28;20242;-65
2021/06/18 09:26:34;;;;;;;4.00;3.70;;;29.60;98.50;;;;;;5115359;28;20309;-65
2021/06/18 09:29:11;;;;;;;3.97;3.50;;;29.60;99.40;;;;;;5110267;28;20245;-68
2021/06/18 09:31:53;;;;;;;3.70;3.40;;;30.00;97.90;;;;;;5114659;28;20448;-65
2021/06/18 09:34:40;;;;;;;4.17;3.87;;;30.00;99.10;;;;;;5114010;28;20429;-69
2021/06/18 09:37:35;;;;;;;5.43;3.57;;;29.90;98.10;;;;;;5103896;28;20462;-69
2021/06/18 09:40:06;;;;;;;6.27;4.17;;;30.00;97.70;;;;;;5080640;28;20792;-65
2021/06/18 09:42:37;;;;;;;3.87;3.57;;;30.10;98.50;;;;;;5115699;27;20558;-65
2021/06/18 09:45:08;;;;;;;4.23;3.83;;;30.30;97.20;;;;;;5110661;28;20494;-65
2021/06/18 09:47:35;;;;;;;4.77;3.90;;;30.20;97.00;;;;;;5106987;27;20460;-68
2021/06/18 09:50:03;;;;;;;4.30;4.00;;;30.00;97.10;;;;;;5108724;27;20475;-69
2021/06/18 09:52:29;;;;;;;3.60;3.30;;;30.00;97.20;;;;;;5112716;27;20439;-65
2021/06/18 09:54:54;;;;;;;5.83;3.67;;;30.10;96.90;;;;;;5111630;28;20923;-69
2021/06/18 09:57:34;;;;;;;3.90;3.50;;;30.30;97.40;;;;;;5111436;28;20190;-65
2021/06/18 10:00:04;;;;;;;4.10;3.80;;;30.40;96.40;;;;;;5103239;28;20583;-68
2021/06/18 10:02:45;;;;;;;4.27;3.87;;;30.40;96.30;;;;;;5112925;27;20474;-65
2021/06/18 10:05:13;;;;;;;5.00;3.87;;;30.30;95.90;;;;;;5112236;28;20443;-69
2021/06/18 10:07:40;;;;;;;5.70;3.57;;;30.00;96.20;;;;;;5113327;28;20435;-65
2021/06/18 10:10:09;;;;;;;3.53;3.30;;;29.90;96.60;;;;;;5112450;28;20432;-69
2021/06/18 10:12:35;;;;;;;3.73;3.37;;;30.20;96.40;;;;;;5112585;28;20980;-68
2021/06/18 10:15:06;;;;;;;6.27;3.63;;;30.50;95.50;;;;;;5114618;28;20499;-64
2021/06/18 10:17:32;;;;;;;4.93;4.43;;;30.40;95.50;;;;;;5111614;28;20446;-70
2021/06/18 10:19:58;;;;;;;3.90;3.60;;;30.30;96.40;;;;;;5111558;28;20430;-65
2021/06/18 10:22:25;;;;;;;3.93;3.53;;;30.60;95.70;;;;;;5106411;27;20827;-65
2021/06/18 10:25:04;;;;;;;3.30;3.10;;;30.50;96.20;;;;;;5109576;27;20419;-65
2021/06/18 10:27:44;;;;;;;3.70;3.50;;;30.70;94.80;;;;;;5112507;27;20931;-65
2021/06/18 10:30:27;;;;;;;4.57;4.10;;;30.70;95.10;;;;;;5109584;28;20454;-70
2021/06/18 10:32:53;;;;;;;4.03;3.73;;;30.70;95.80;;;;;;5109485;27;20438;-69
2021/06/18 10:35:39;;;;;;;4.00;3.70;;;30.80;95.70;;;;;;5110391;27;20428;-65
2021/06/18 10:38:13;;;;;;;4.17;3.87;;;31.30;95.60;;;;;;5103383;28;20848;-68
2021/06/18 10:40:46;;;;;;;3.47;3.27;;;31.50;94.60;;;;;;5105543;27;20540;-65
2021/06/18 10:43:14;;;;;;;3.83;3.37;;;31.40;93.80;;;;;;5111633;28;20925;-66
2021/06/18 10:45:58;;;;;;;4.53;3.87;;;31.50;94.00;;;;;;5109674;27;20436;-70
2021/06/18 10:48:55;;;;;;;4.83;4.40;;;31.50;94.70;;;;;;5109363;28;21797;-69
2021/06/18 10:51:27;;;;;;;6.63;4.30;;;31.80;94.50;;;;;;5108748;27;20549;-66
2021/06/18 10:54:04;;;;;;;3.73;3.43;;;31.90;94.50;;;;;;5106675;27;20437;-67
2021/06/18 10:56:45;;;;;;;4.03;3.73;;;31.90;94.60;;;;;;5110977;27;20456;-68
2021/06/18 10:59:19;;;;;;;3.60;3.30;;;32.10;95.00;;;;;;5105045;28;20429;-69
2021/06/18 11:01:46;;;;;;;4.27;3.87;;;32.10;93.40;;;;;;5104363;27;20495;-68
2021/06/18 11:04:12;;;;;;;4.40;4.07;;;32.10;92.90;;;;;;5105028;27;20552;-68
2021/06/18 11:06:41;;;;;;;3.53;3.30;;;32.00;92.90;;;;;;5109553;28;20999;-70
2021/06/18 11:09:07;;;;;;;4.10;3.53;;;32.20;92.70;;;;;;5110053;28;20195;-65
2021/06/18 11:11:32;;;;;;;3.90;3.60;;;32.20;92.00;;;;;;5110836;28;20816;-67
2021/06/18 11:14:06;;;;;;;3.80;3.50;;;32.20;92.10;;;;;;5110431;28;20456;-68
2021/06/18 11:16:36;;;;;;;3.77;3.47;;;32.00;91.70;;;;;;5109507;28;20561;-68
2021/06/18 11:19:24;;;;;;;3.77;3.47;;;32.20;92.10;;;;;;5107850;28;20547;-65
2021/06/18 11:21:50;;;;;;;3.63;3.33;;;32.30;92.00;;;;;;5106112;27;21732;-67
2021/06/18 11:24:39;;;;;;;3.37;3.17;;;32.30;91.90;;;;;;5109555;28;20471;-70
2021/06/18 11:27:30;;;;;;;4.77;3.43;;;32.30;91.60;;;;;;5110597;28;20518;-69
2021/06/18 11:30:27;;;;;;;3.53;3.27;;;32.30;91.20;;;;;;5111656;28;20423;-64
2021/06/18 11:32:55;;;;;;;3.50;3.20;;;32.40;91.10;;;;;;5107527;28;20446;-65
2021/06/18 11:35:33;;;;;;;4.67;4.27;;;32.10;91.20;;;;;;5113224;28;20450;-67
2021/06/18 11:38:19;;;;;;;3.80;3.50;;;31.80;91.40;;;;;;5112489;28;20525;-69
2021/06/18 11:40:46;;;;;;;3.33;3.13;;;31.40;91.80;;;;;;5105568;28;20453;-67
2021/06/18 11:43:12;;;;;;;3.90;3.57;;;31.10;92.10;;;;;;5108371;28;21031;-68
2021/06/18 11:45:43;;;;;;;3.97;3.60;;;31.30;91.90;;;;;;5110779;28;20800;-68
2021/06/18 11:48:14;;;;;;;3.90;3.10;;;31.20;92.00;;;;;;5109175;28;20437;-66
2021/06/18 11:50:40;;;;;;;4.00;3.60;;;31.30;92.70;;;;;;5105190;28;20457;-69
2021/06/18 11:53:06;;;;;;;12.03;4.13;;;31.30;91.80;;;;;;5109749;27;20441;-67
2021/06/18 11:55:31;;;;;;;3.83;3.53;;;31.50;91.70;;;;;;5110854;28;20984;-69
2021/06/18 11:57:57;;;;;;;3.63;3.43;;;31.30;91.80;;;;;;5110047;28;20195;-69
2021/06/18 12:00:36;;;;;;;3.97;3.67;;;31.40;90.80;;;;;;5109336;28;20223;-69
2021/06/18 12:03:03;;;;;;;3.57;3.37;;;31.30;91.10;;;;;;5108840;28;20219;-69
2021/06/18 12:05:31;;;;;;;4.70;3.97;;;31.50;91.60;;;;;;5113079;28;20843;-66
2021/06/18 12:07:56;;;;;;;4.60;4.20;;;31.60;91.10;;;;;;5111529;28;20469;-66
2021/06/18 12:10:33;;;;;;;3.87;3.53;;;31.50;90.90;;;;;;5109236;27;20858;-65
2021/06/18 12:13:00;;;;;;;3.90;3.60;;;31.80;90.10;;;;;;5111735;28;20226;-65
2021/06/18 12:15:34;;;;;;;4.50;4.10;;;32.00;90.80;;;;;;5112790;28;20452;-64
2021/06/18 12:18:01;;;;;;;5.60;3.40;;;32.00;90.40;;;;;;5110417;28;20968;-65
2021/06/18 12:20:41;;;;;;;4.50;4.00;;;32.10;90.50;;;;;;5111302;28;20431;-69
2021/06/18 12:23:12;;;;;;;4.50;3.53;;;32.00;90.60;;;;;;5111464;28;20525;-69
2021/06/18 12:25:38;;;;;;;4.07;3.53;;;32.00;90.50;;;;;;5113162;28;20511;-70
2021/06/18 12:28:05;;;;;;;3.80;3.50;;;32.20;90.10;;;;;;5108612;28;20439;-66
2021/06/18 12:30:33;;;;;;;4.30;3.90;;;32.10;90.30;;;;;;5108697;28;20229;-70
2021/06/18 12:33:00;;;;;;;5.30;3.67;;;32.00;90.30;;;;;;5111749;28;20440;-70
2021/06/18 12:35:41;;;;;;;3.87;3.57;;;32.00;90.50;;;;;;5107429;28;20457;-69
2021/06/18 12:38:09;;;;;;;3.90;3.60;;;32.10;90.30;;;;;;5106047;28;20477;-70
2021/06/18 12:40:36;;;;;;;4.37;3.67;;;32.00;90.60;;;;;;5104937;28;20455;-70
2021/06/18 12:43:11;;;;;;;5.83;4.10;;;32.00;90.50;;;;;;5111235;28;20488;-69
2021/06/18 12:45:49;;;;;;;4.53;4.13;;;32.10;90.20;;;;;;5111339;28;20528;-67
2021/06/18 12:48:24;;;;;;;3.70;3.50;;;32.20;90.30;;;;;;5109479;28;20950;-68